sensor_id;sensor_type;location;lat;lon;timestamp;P1;durP1;ratioP1;P2;durP2;ratioP2
55800;SDS011;41730;51.960;20.158;2022-07-10T00:00:12;2.40;;;1.40;;
55800;SDS011;41730;51.960;20.158;2022-07-10T00:02:44;2.30;;;1.50;;
55800;SDS011;41730;51.960;20.158;2022-07-10T00:05:13;4.40;;;1.60;;
55800;SDS011;41730;51.960;20.158;2022-07-10T00:07:46;2.20;;;1.60;;
55800;SDS011;41730;51.960;20.158;2022-07-10T00:10:16;2.00;;;1.40;;
55800;SDS011;41730;51.960;20.158;2022-07-10T00:12:45;3.90;;;1.80;;
55800;SDS011;41730;51.960;20.158;2022-07-10T00:15:15;2.60;;;1.50;;
55800;SDS011;41730;51.960;20.158;2022-07-10T00:17:45;2.20;;;1.50;;
55800;SDS011;41730;51.960;20.158;2022-07-10T00:20:14;3.40;;;2.20;;
55800;SDS011;41730;51.960;20.158;2022-07-10T00:22:43;3.20;;;2.00;;
55800;SDS011;41730;51.960;20.158;2022-07-10T00:25:12;2.80;;;1.60;;
55800;SDS011;41730;51.960;20.158;2022-07-10T00:27:41;3.10;;;1.60;;
55800;SDS011;41730;51.960;20.158;2022-07-10T00:30:11;3.20;;;2.00;;
55800;SDS011;41730;51.960;20.158;2022-07-10T00:32:40;2.70;;;1.30;;
55800;SDS011;41730;51.960;20.158;2022-07-10T00:35:10;3.40;;;1.80;;
55800;SDS011;41730;51.960;20.158;2022-07-10T00:37:39;2.70;;;1.90;;
55800;SDS011;41730;51.960;20.158;2022-07-10T00:40:09;2.70;;;1.60;;
55800;SDS011;41730;51.960;20.158;2022-07-10T00:42:39;3.60;;;1.80;;
55800;SDS011;41730;51.960;20.158;2022-07-10T00:45:10;2.60;;;1.70;;
55800;SDS011;41730;51.960;20.158;2022-07-10T00:47:39;2.50;;;1.60;;
55800;SDS011;41730;51.960;20.158;2022-07-10T00:50:09;2.40;;;1.70;;
55800;SDS011;41730;51.960;20.158;2022-07-10T00:52:39;4.70;;;1.80;;
55800;SDS011;41730;51.960;20.158;2022-07-10T00:55:09;3.20;;;1.90;;
55800;SDS011;41730;51.960;20.158;2022-07-10T00:57:39;4.10;;;1.80;;
55800;SDS011;41730;51.960;20.158;2022-07-10T01:00:09;3.00;;;2.10;;
55800;SDS011;41730;51.960;20.158;2022-07-10T01:02:40;3.60;;;1.90;;
55800;SDS011;41730;51.960;20.158;2022-07-10T01:05:11;3.20;;;1.80;;
55800;SDS011;41730;51.960;20.158;2022-07-10T01:07:40;2.30;;;1.70;;
55800;SDS011;41730;51.960;20.158;2022-07-10T01:10:09;3.70;;;1.90;;
55800;SDS011;41730;51.960;20.158;2022-07-10T01:12:38;3.80;;;1.90;;
55800;SDS011;41730;51.960;20.158;2022-07-10T01:15:08;3.40;;;2.20;;
55800;SDS011;41730;51.960;20.158;2022-07-10T01:17:38;3.20;;;1.90;;
55800;SDS011;41730;51.960;20.158;2022-07-10T01:20:07;3.30;;;2.40;;
55800;SDS011;41730;51.960;20.158;2022-07-10T01:22:38;3.70;;;2.60;;
55800;SDS011;41730;51.960;20.158;2022-07-10T01:25:08;3.70;;;2.20;;
55800;SDS011;41730;51.960;20.158;2022-07-10T01:27:38;2.90;;;2.00;;
55800;SDS011;41730;51.960;20.158;2022-07-10T01:30:09;3.50;;;2.20;;
55800;SDS011;41730;51.960;20.158;2022-07-10T01:32:38;4.50;;;2.20;;
55800;SDS011;41730;51.960;20.158;2022-07-10T01:35:08;3.60;;;2.20;;
55800;SDS011;41730;51.960;20.158;2022-07-10T01:37:38;3.30;;;2.30;;
55800;SDS011;41730;51.960;20.158;2022-07-10T01:40:08;2.90;;;2.10;;
55800;SDS011;41730;51.960;20.158;2022-07-10T01:42:37;3.70;;;2.20;;
55800;SDS011;41730;51.960;20.158;2022-07-10T01:45:07;3.90;;;2.20;;
55800;SDS011;41730;51.960;20.158;2022-07-10T01:47:37;3.50;;;2.20;;
55800;SDS011;41730;51.960;20.158;2022-07-10T01:50:07;3.70;;;2.10;;
55800;SDS011;41730;51.960;20.158;2022-07-10T01:52:36;3.50;;;2.30;;
55800;SDS011;41730;51.960;20.158;2022-07-10T01:55:06;3.80;;;2.30;;
55800;SDS011;41730;51.960;20.158;2022-07-10T01:57:36;3.10;;;2.00;;
55800;SDS011;41730;51.960;20.158;2022-07-10T02:00:06;4.70;;;2.40;;
55800;SDS011;41730;51.960;20.158;2022-07-10T02:02:36;3.10;;;2.20;;
55800;SDS011;41730;51.960;20.158;2022-07-10T02:05:06;6.20;;;2.40;;
55800;SDS011;41730;51.960;20.158;2022-07-10T02:07:35;4.20;;;2.50;;
55800;SDS011;41730;51.960;20.158;2022-07-10T02:10:05;4.20;;;2.30;;
55800;SDS011;41730;51.960;20.158;2022-07-10T02:12:35;5.20;;;2.40;;
55800;SDS011;41730;51.960;20.158;2022-07-10T02:15:05;3.60;;;2.30;;
55800;SDS011;41730;51.960;20.158;2022-07-10T02:17:35;4.90;;;2.50;;
55800;SDS011;41730;51.960;20.158;2022-07-10T02:20:05;4.90;;;2.00;;
55800;SDS011;41730;51.960;20.158;2022-07-10T02:22:37;4.80;;;2.40;;
55800;SDS011;41730;51.960;20.158;2022-07-10T02:25:06;3.30;;;2.60;;
55800;SDS011;41730;51.960;20.158;2022-07-10T02:27:36;3.60;;;2.30;;
55800;SDS011;41730;51.960;20.158;2022-07-10T02:30:07;3.30;;;2.10;;
55800;SDS011;41730;51.960;20.158;2022-07-10T02:32:37;3.60;;;2.30;;
55800;SDS011;41730;51.960;20.158;2022-07-10T02:35:07;4.10;;;2.30;;
55800;SDS011;41730;51.960;20.158;2022-07-10T02:37:39;3.40;;;2.40;;
55800;SDS011;41730;51.960;20.158;2022-07-10T02:40:09;6.70;;;2.60;;
55800;SDS011;41730;51.960;20.158;2022-07-10T02:42:38;3.60;;;2.30;;
55800;SDS011;41730;51.960;20.158;2022-07-10T02:45:09;4.20;;;2.20;;
55800;SDS011;41730;51.960;20.158;2022-07-10T02:47:41;4.00;;;2.00;;
55800;SDS011;41730;51.960;20.158;2022-07-10T02:50:12;4.90;;;2.30;;
55800;SDS011;41730;51.960;20.158;2022-07-10T02:52:41;3.10;;;2.00;;
55800;SDS011;41730;51.960;20.158;2022-07-10T02:55:11;4.60;;;2.50;;
55800;SDS011;41730;51.960;20.158;2022-07-10T02:57:40;4.70;;;2.30;;
55800;SDS011;41730;51.960;20.158;2022-07-10T03:00:10;3.20;;;2.30;;
55800;SDS011;41730;51.960;20.158;2022-07-10T03:02:41;4.50;;;2.00;;
55800;SDS011;41730;51.960;20.158;2022-07-10T03:05:10;3.70;;;2.70;;
55800;SDS011;41730;51.960;20.158;2022-07-10T03:07:39;3.60;;;2.10;;
55800;SDS011;41730;51.960;20.158;2022-07-10T03:10:09;4.30;;;2.30;;
55800;SDS011;41730;51.960;20.158;2022-07-10T03:12:39;4.10;;;1.80;;
55800;SDS011;41730;51.960;20.158;2022-07-10T03:15:08;3.30;;;1.60;;
55800;SDS011;41730;51.960;20.158;2022-07-10T03:17:38;2.50;;;1.50;;
55800;SDS011;41730;51.960;20.158;2022-07-10T03:20:14;4.20;;;1.90;;
55800;SDS011;41730;51.960;20.158;2022-07-10T03:22:58;5.40;;;1.90;;
55800;SDS011;41730;51.960;20.158;2022-07-10T03:25:44;4.50;;;2.00;;
55800;SDS011;41730;51.960;20.158;2022-07-10T03:28:36;4.90;;;1.90;;
55800;SDS011;41730;51.960;20.158;2022-07-10T03:34:08;2.80;;;1.50;;
55800;SDS011;41730;51.960;20.158;2022-07-10T03:36:54;3.90;;;1.90;;
55800;SDS011;41730;51.960;20.158;2022-07-10T03:39:37;3.10;;;1.80;;
55800;SDS011;41730;51.960;20.158;2022-07-10T03:42:22;4.80;;;2.40;;
55800;SDS011;41730;51.960;20.158;2022-07-10T03:44:51;4.60;;;2.10;;
55800;SDS011;41730;51.960;20.158;2022-07-10T03:47:21;4.30;;;2.10;;
55800;SDS011;41730;51.960;20.158;2022-07-10T03:49:50;4.70;;;2.40;;
55800;SDS011;41730;51.960;20.158;2022-07-10T03:52:19;4.30;;;2.40;;
55800;SDS011;41730;51.960;20.158;2022-07-10T03:54:48;4.80;;;2.20;;
55800;SDS011;41730;51.960;20.158;2022-07-10T03:57:17;3.90;;;2.20;;
55800;SDS011;41730;51.960;20.158;2022-07-10T04:00:05;4.30;;;2.10;;
55800;SDS011;41730;51.960;20.158;2022-07-10T04:02:35;5.10;;;2.20;;
55800;SDS011;41730;51.960;20.158;2022-07-10T04:05:06;3.70;;;1.70;;
55800;SDS011;41730;51.960;20.158;2022-07-10T04:07:36;4.00;;;1.90;;
55800;SDS011;41730;51.960;20.158;2022-07-10T04:10:06;2.80;;;1.80;;
55800;SDS011;41730;51.960;20.158;2022-07-10T04:12:37;2.90;;;1.80;;
55800;SDS011;41730;51.960;20.158;2022-07-10T04:15:11;3.40;;;2.10;;
55800;SDS011;41730;51.960;20.158;2022-07-10T04:17:50;3.60;;;1.80;;
55800;SDS011;41730;51.960;20.158;2022-07-10T04:20:31;3.70;;;2.00;;
55800;SDS011;41730;51.960;20.158;2022-07-10T04:23:09;3.60;;;2.20;;
55800;SDS011;41730;51.960;20.158;2022-07-10T04:25:56;3.70;;;2.10;;
55800;SDS011;41730;51.960;20.158;2022-07-10T04:28:36;5.00;;;2.30;;
55800;SDS011;41730;51.960;20.158;2022-07-10T04:31:20;3.60;;;1.90;;
55800;SDS011;41730;51.960;20.158;2022-07-10T04:34:03;4.50;;;2.20;;
55800;SDS011;41730;51.960;20.158;2022-07-10T04:36:44;4.20;;;2.50;;
55800;SDS011;41730;51.960;20.158;2022-07-10T04:39:13;5.50;;;2.90;;
55800;SDS011;41730;51.960;20.158;2022-07-10T04:41:42;5.70;;;2.80;;
55800;SDS011;41730;51.960;20.158;2022-07-10T04:44:12;3.80;;;2.90;;
55800;SDS011;41730;51.960;20.158;2022-07-10T04:46:41;5.30;;;2.90;;
55800;SDS011;41730;51.960;20.158;2022-07-10T04:49:10;4.30;;;2.60;;
55800;SDS011;41730;51.960;20.158;2022-07-10T04:51:39;5.10;;;2.80;;
55800;SDS011;41730;51.960;20.158;2022-07-10T04:54:13;3.90;;;2.30;;
55800;SDS011;41730;51.960;20.158;2022-07-10T04:56:42;4.40;;;2.50;;
55800;SDS011;41730;51.960;20.158;2022-07-10T04:59:11;4.90;;;2.50;;
55800;SDS011;41730;51.960;20.158;2022-07-10T05:01:40;4.60;;;2.20;;
55800;SDS011;41730;51.960;20.158;2022-07-10T05:04:09;5.90;;;2.90;;
55800;SDS011;41730;51.960;20.158;2022-07-10T05:06:39;4.60;;;2.60;;
55800;SDS011;41730;51.960;20.158;2022-07-10T05:09:08;6.30;;;2.50;;
55800;SDS011;41730;51.960;20.158;2022-07-10T05:11:37;5.30;;;3.00;;
55800;SDS011;41730;51.960;20.158;2022-07-10T05:14:07;3.70;;;2.50;;
55800;SDS011;41730;51.960;20.158;2022-07-10T05:16:36;4.20;;;2.30;;
55800;SDS011;41730;51.960;20.158;2022-07-10T05:19:06;5.50;;;2.50;;
55800;SDS011;41730;51.960;20.158;2022-07-10T05:21:35;4.40;;;2.40;;
55800;SDS011;41730;51.960;20.158;2022-07-10T05:24:04;4.40;;;2.30;;
55800;SDS011;41730;51.960;20.158;2022-07-10T05:26:34;4.60;;;2.50;;
55800;SDS011;41730;51.960;20.158;2022-07-10T05:29:03;6.10;;;2.70;;
55800;SDS011;41730;51.960;20.158;2022-07-10T05:31:32;5.50;;;3.10;;
55800;SDS011;41730;51.960;20.158;2022-07-10T05:34:01;5.30;;;3.50;;
55800;SDS011;41730;51.960;20.158;2022-07-10T05:36:31;5.80;;;3.20;;
55800;SDS011;41730;51.960;20.158;2022-07-10T05:39:00;4.40;;;2.50;;
55800;SDS011;41730;51.960;20.158;2022-07-10T05:41:29;4.30;;;2.80;;
55800;SDS011;41730;51.960;20.158;2022-07-10T05:43:59;4.80;;;3.00;;
55800;SDS011;41730;51.960;20.158;2022-07-10T05:46:31;3.50;;;2.40;;
55800;SDS011;41730;51.960;20.158;2022-07-10T05:49:01;3.20;;;2.50;;
55800;SDS011;41730;51.960;20.158;2022-07-10T05:51:30;4.70;;;2.90;;
55800;SDS011;41730;51.960;20.158;2022-07-10T05:54:10;9.40;;;2.90;;
55800;SDS011;41730;51.960;20.158;2022-07-10T05:56:40;4.60;;;3.00;;
55800;SDS011;41730;51.960;20.158;2022-07-10T05:59:09;7.00;;;2.90;;
55800;SDS011;41730;51.960;20.158;2022-07-10T06:01:38;4.30;;;2.90;;
55800;SDS011;41730;51.960;20.158;2022-07-10T06:04:08;3.90;;;2.90;;
55800;SDS011;41730;51.960;20.158;2022-07-10T06:06:37;3.70;;;2.90;;
55800;SDS011;41730;51.960;20.158;2022-07-10T06:09:07;5.10;;;2.70;;
55800;SDS011;41730;51.960;20.158;2022-07-10T06:11:36;4.60;;;2.20;;
55800;SDS011;41730;51.960;20.158;2022-07-10T06:14:08;6.70;;;2.80;;
55800;SDS011;41730;51.960;20.158;2022-07-10T06:16:38;5.80;;;2.60;;
55800;SDS011;41730;51.960;20.158;2022-07-10T06:19:07;6.50;;;2.60;;
55800;SDS011;41730;51.960;20.158;2022-07-10T06:21:35;5.40;;;2.60;;
55800;SDS011;41730;51.960;20.158;2022-07-10T06:24:05;3.60;;;2.30;;
55800;SDS011;41730;51.960;20.158;2022-07-10T06:26:34;7.00;;;3.00;;
55800;SDS011;41730;51.960;20.158;2022-07-10T06:29:04;4.60;;;2.30;;
55800;SDS011;41730;51.960;20.158;2022-07-10T06:31:34;3.00;;;2.20;;
55800;SDS011;41730;51.960;20.158;2022-07-10T06:34:04;5.60;;;2.20;;
55800;SDS011;41730;51.960;20.158;2022-07-10T06:36:34;4.40;;;2.20;;
55800;SDS011;41730;51.960;20.158;2022-07-10T06:39:03;5.50;;;2.40;;
55800;SDS011;41730;51.960;20.158;2022-07-10T06:41:32;3.70;;;1.90;;
55800;SDS011;41730;51.960;20.158;2022-07-10T06:44:06;5.20;;;2.00;;
55800;SDS011;41730;51.960;20.158;2022-07-10T06:46:35;6.40;;;2.00;;
55800;SDS011;41730;51.960;20.158;2022-07-10T06:49:04;5.10;;;1.90;;
55800;SDS011;41730;51.960;20.158;2022-07-10T06:51:34;3.70;;;2.00;;
55800;SDS011;41730;51.960;20.158;2022-07-10T06:54:03;5.40;;;2.40;;
55800;SDS011;41730;51.960;20.158;2022-07-10T06:56:32;3.70;;;2.00;;
55800;SDS011;41730;51.960;20.158;2022-07-10T06:59:01;6.20;;;2.40;;
55800;SDS011;41730;51.960;20.158;2022-07-10T07:01:30;6.10;;;2.40;;
55800;SDS011;41730;51.960;20.158;2022-07-10T07:03:59;5.10;;;2.50;;
55800;SDS011;41730;51.960;20.158;2022-07-10T07:06:28;5.40;;;2.90;;
55800;SDS011;41730;51.960;20.158;2022-07-10T07:08:57;3.70;;;2.10;;
55800;SDS011;41730;51.960;20.158;2022-07-10T07:11:26;4.90;;;1.70;;
55800;SDS011;41730;51.960;20.158;2022-07-10T07:13:55;3.60;;;1.90;;
55800;SDS011;41730;51.960;20.158;2022-07-10T07:16:24;3.50;;;1.90;;
55800;SDS011;41730;51.960;20.158;2022-07-10T07:19:04;3.50;;;2.00;;
55800;SDS011;41730;51.960;20.158;2022-07-10T07:21:33;2.50;;;1.70;;
55800;SDS011;41730;51.960;20.158;2022-07-10T07:24:21;4.90;;;1.60;;
55800;SDS011;41730;51.960;20.158;2022-07-10T07:26:50;5.90;;;1.80;;
55800;SDS011;41730;51.960;20.158;2022-07-10T07:29:19;4.40;;;1.60;;
55800;SDS011;41730;51.960;20.158;2022-07-10T07:31:48;4.60;;;1.50;;
55800;SDS011;41730;51.960;20.158;2022-07-10T07:34:19;3.00;;;1.20;;
55800;SDS011;41730;51.960;20.158;2022-07-10T07:36:48;4.70;;;1.20;;
55800;SDS011;41730;51.960;20.158;2022-07-10T07:39:17;3.30;;;1.10;;
55800;SDS011;41730;51.960;20.158;2022-07-10T07:41:46;3.50;;;1.10;;
55800;SDS011;41730;51.960;20.158;2022-07-10T07:44:15;2.70;;;1.10;;
55800;SDS011;41730;51.960;20.158;2022-07-10T07:46:45;4.20;;;1.20;;
55800;SDS011;41730;51.960;20.158;2022-07-10T07:49:14;6.50;;;1.40;;
55800;SDS011;41730;51.960;20.158;2022-07-10T07:51:43;3.40;;;1.10;;
55800;SDS011;41730;51.960;20.158;2022-07-10T07:54:12;4.00;;;1.00;;
55800;SDS011;41730;51.960;20.158;2022-07-10T07:56:42;3.70;;;1.00;;
55800;SDS011;41730;51.960;20.158;2022-07-10T07:59:12;3.50;;;1.10;;
55800;SDS011;41730;51.960;20.158;2022-07-10T08:01:40;4.00;;;1.10;;
55800;SDS011;41730;51.960;20.158;2022-07-10T08:04:17;5.00;;;1.20;;
55800;SDS011;41730;51.960;20.158;2022-07-10T08:06:47;3.20;;;1.00;;
55800;SDS011;41730;51.960;20.158;2022-07-10T08:09:19;4.40;;;1.10;;
55800;SDS011;41730;51.960;20.158;2022-07-10T08:11:48;5.30;;;1.40;;
55800;SDS011;41730;51.960;20.158;2022-07-10T08:14:19;4.10;;;1.20;;
55800;SDS011;41730;51.960;20.158;2022-07-10T08:16:48;4.50;;;1.20;;
55800;SDS011;41730;51.960;20.158;2022-07-10T08:19:19;5.00;;;1.20;;
55800;SDS011;41730;51.960;20.158;2022-07-10T08:22:00;3.70;;;1.10;;
55800;SDS011;41730;51.960;20.158;2022-07-10T08:24:40;6.00;;;1.10;;
55800;SDS011;41730;51.960;20.158;2022-07-10T08:27:09;3.20;;;1.00;;
55800;SDS011;41730;51.960;20.158;2022-07-10T08:29:39;3.50;;;0.90;;
55800;SDS011;41730;51.960;20.158;2022-07-10T08:32:08;3.60;;;1.20;;
55800;SDS011;41730;51.960;20.158;2022-07-10T08:38:57;4.40;;;1.10;;
55800;SDS011;41730;51.960;20.158;2022-07-10T08:41:29;3.70;;;0.80;;
55800;SDS011;41730;51.960;20.158;2022-07-10T08:47:02;4.50;;;0.80;;
55800;SDS011;41730;51.960;20.158;2022-07-10T08:49:38;2.90;;;0.70;;
55800;SDS011;41730;51.960;20.158;2022-07-10T08:52:17;4.30;;;1.10;;
55800;SDS011;41730;51.960;20.158;2022-07-10T08:54:53;2.90;;;0.50;;
55800;SDS011;41730;51.960;20.158;2022-07-10T08:57:24;2.00;;;0.70;;
55800;SDS011;41730;51.960;20.158;2022-07-10T08:59:58;3.00;;;0.80;;
55800;SDS011;41730;51.960;20.158;2022-07-10T09:02:27;2.20;;;0.70;;
55800;SDS011;41730;51.960;20.158;2022-07-10T09:04:56;3.00;;;0.80;;
55800;SDS011;41730;51.960;20.158;2022-07-10T09:07:30;2.10;;;0.70;;
55800;SDS011;41730;51.960;20.158;2022-07-10T09:10:07;2.90;;;0.70;;
55800;SDS011;41730;51.960;20.158;2022-07-10T09:12:51;2.40;;;0.70;;
55800;SDS011;41730;51.960;20.158;2022-07-10T09:18:50;3.20;;;0.90;;
55800;SDS011;41730;51.960;20.158;2022-07-10T09:21:23;2.80;;;0.80;;
55800;SDS011;41730;51.960;20.158;2022-07-10T09:23:57;2.90;;;0.60;;
55800;SDS011;41730;51.960;20.158;2022-07-10T09:26:57;3.70;;;0.70;;
55800;SDS011;41730;51.960;20.158;2022-07-10T09:29:44;2.80;;;0.80;;
55800;SDS011;41730;51.960;20.158;2022-07-10T09:32:29;3.30;;;1.00;;
55800;SDS011;41730;51.960;20.158;2022-07-10T09:38:31;2.10;;;0.70;;
55800;SDS011;41730;51.960;20.158;2022-07-10T09:41:24;4.50;;;0.70;;
55800;SDS011;41730;51.960;20.158;2022-07-10T09:44:16;1.90;;;0.80;;
55800;SDS011;41730;51.960;20.158;2022-07-10T09:46:50;2.40;;;0.70;;
55800;SDS011;41730;51.960;20.158;2022-07-10T09:49:19;2.20;;;0.50;;
55800;SDS011;41730;51.960;20.158;2022-07-10T09:51:48;1.80;;;0.50;;
55800;SDS011;41730;51.960;20.158;2022-07-10T09:54:17;1.20;;;0.60;;
55800;SDS011;41730;51.960;20.158;2022-07-10T09:56:48;5.10;;;0.60;;
55800;SDS011;41730;51.960;20.158;2022-07-10T09:59:21;1.70;;;0.50;;
55800;SDS011;41730;51.960;20.158;2022-07-10T10:01:56;2.20;;;0.60;;
55800;SDS011;41730;51.960;20.158;2022-07-10T10:07:40;2.10;;;0.60;;
55800;SDS011;41730;51.960;20.158;2022-07-10T10:10:48;2.30;;;0.70;;
55800;SDS011;41730;51.960;20.158;2022-07-10T10:13:32;5.40;;;0.70;;
55800;SDS011;41730;51.960;20.158;2022-07-10T10:16:31;3.10;;;0.90;;
55800;SDS011;41730;51.960;20.158;2022-07-10T10:19:04;3.70;;;0.90;;
55800;SDS011;41730;51.960;20.158;2022-07-10T10:25:08;2.70;;;0.70;;
55800;SDS011;41730;51.960;20.158;2022-07-10T10:28:13;2.40;;;0.80;;
55800;SDS011;41730;51.960;20.158;2022-07-10T10:30:45;4.30;;;0.70;;
55800;SDS011;41730;51.960;20.158;2022-07-10T10:33:42;2.80;;;0.70;;
55800;SDS011;41730;51.960;20.158;2022-07-10T10:39:16;2.50;;;0.80;;
55800;SDS011;41730;51.960;20.158;2022-07-10T10:41:50;2.50;;;0.70;;
55800;SDS011;41730;51.960;20.158;2022-07-10T10:44:22;2.20;;;0.70;;
55800;SDS011;41730;51.960;20.158;2022-07-10T10:46:54;2.10;;;0.70;;
55800;SDS011;41730;51.960;20.158;2022-07-10T10:52:25;3.50;;;0.70;;
55800;SDS011;41730;51.960;20.158;2022-07-10T10:55:08;2.60;;;0.70;;
55800;SDS011;41730;51.960;20.158;2022-07-10T10:57:41;4.00;;;0.80;;
55800;SDS011;41730;51.960;20.158;2022-07-10T11:00:14;1.90;;;0.60;;
55800;SDS011;41730;51.960;20.158;2022-07-10T11:03:20;4.30;;;0.90;;
55800;SDS011;41730;51.960;20.158;2022-07-10T11:05:51;4.00;;;0.80;;
55800;SDS011;41730;51.960;20.158;2022-07-10T11:08:36;2.10;;;0.70;;
55800;SDS011;41730;51.960;20.158;2022-07-10T11:14:07;2.70;;;0.70;;
55800;SDS011;41730;51.960;20.158;2022-07-10T11:16:47;1.80;;;0.90;;
55800;SDS011;41730;51.960;20.158;2022-07-10T11:19:27;3.90;;;0.90;;
55800;SDS011;41730;51.960;20.158;2022-07-10T11:25:11;3.00;;;0.70;;
55800;SDS011;41730;51.960;20.158;2022-07-10T11:28:13;2.90;;;0.60;;
55800;SDS011;41730;51.960;20.158;2022-07-10T11:30:57;2.10;;;0.70;;
55800;SDS011;41730;51.960;20.158;2022-07-10T11:33:26;3.50;;;0.60;;
55800;SDS011;41730;51.960;20.158;2022-07-10T11:35:55;1.60;;;0.60;;
55800;SDS011;41730;51.960;20.158;2022-07-10T11:38:25;2.10;;;0.50;;
55800;SDS011;41730;51.960;20.158;2022-07-10T11:40:57;3.60;;;0.60;;
55800;SDS011;41730;51.960;20.158;2022-07-10T11:43:28;3.30;;;0.70;;
55800;SDS011;41730;51.960;20.158;2022-07-10T11:46:08;2.60;;;0.60;;
55800;SDS011;41730;51.960;20.158;2022-07-10T11:48:38;2.70;;;0.60;;
55800;SDS011;41730;51.960;20.158;2022-07-10T11:51:24;3.10;;;0.70;;
55800;SDS011;41730;51.960;20.158;2022-07-10T11:53:59;2.30;;;0.70;;
55800;SDS011;41730;51.960;20.158;2022-07-10T11:56:52;3.70;;;0.90;;
55800;SDS011;41730;51.960;20.158;2022-07-10T11:59:27;5.10;;;0.70;;
55800;SDS011;41730;51.960;20.158;2022-07-10T12:02:02;2.00;;;0.60;;
55800;SDS011;41730;51.960;20.158;2022-07-10T12:04:31;1.50;;;0.50;;
55800;SDS011;41730;51.960;20.158;2022-07-10T12:07:07;2.00;;;0.50;;
55800;SDS011;41730;51.960;20.158;2022-07-10T12:09:39;3.70;;;0.60;;
55800;SDS011;41730;51.960;20.158;2022-07-10T12:12:25;2.00;;;0.60;;
55800;SDS011;41730;51.960;20.158;2022-07-10T12:15:10;3.50;;;0.70;;
55800;SDS011;41730;51.960;20.158;2022-07-10T12:18:08;1.60;;;0.60;;
55800;SDS011;41730;51.960;20.158;2022-07-10T12:20:48;3.90;;;0.80;;
55800;SDS011;41730;51.960;20.158;2022-07-10T12:23:30;2.40;;;0.60;;
55800;SDS011;41730;51.960;20.158;2022-07-10T12:29:20;1.50;;;0.50;;
55800;SDS011;41730;51.960;20.158;2022-07-10T12:34:42;1.50;;;0.60;;
55800;SDS011;41730;51.960;20.158;2022-07-10T12:37:29;3.30;;;1.00;;
55800;SDS011;41730;51.960;20.158;2022-07-10T12:40:08;2.70;;;0.70;;
55800;SDS011;41730;51.960;20.158;2022-07-10T12:43:01;2.30;;;0.90;;
55800;SDS011;41730;51.960;20.158;2022-07-10T12:45:44;3.40;;;0.80;;
55800;SDS011;41730;51.960;20.158;2022-07-10T12:48:38;2.60;;;0.70;;
55800;SDS011;41730;51.960;20.158;2022-07-10T12:51:25;3.60;;;1.00;;
55800;SDS011;41730;51.960;20.158;2022-07-10T12:54:35;2.60;;;1.00;;
55800;SDS011;41730;51.960;20.158;2022-07-10T12:57:05;1.80;;;0.70;;
55800;SDS011;41730;51.960;20.158;2022-07-10T12:59:35;3.90;;;0.80;;
55800;SDS011;41730;51.960;20.158;2022-07-10T13:02:16;3.50;;;0.80;;
55800;SDS011;41730;51.960;20.158;2022-07-10T13:04:53;3.10;;;0.90;;
55800;SDS011;41730;51.960;20.158;2022-07-10T13:07:29;2.60;;;0.70;;
55800;SDS011;41730;51.960;20.158;2022-07-10T13:09:59;3.60;;;1.00;;
55800;SDS011;41730;51.960;20.158;2022-07-10T13:12:31;3.90;;;1.00;;
55800;SDS011;41730;51.960;20.158;2022-07-10T13:15:00;2.20;;;1.00;;
55800;SDS011;41730;51.960;20.158;2022-07-10T13:17:30;2.00;;;0.90;;
55800;SDS011;41730;51.960;20.158;2022-07-10T13:20:00;0.70;;;0.40;;
55800;SDS011;41730;51.960;20.158;2022-07-10T13:22:29;1.60;;;0.40;;
55800;SDS011;41730;51.960;20.158;2022-07-10T13:24:58;0.80;;;0.40;;
55800;SDS011;41730;51.960;20.158;2022-07-10T13:27:28;1.50;;;0.50;;
55800;SDS011;41730;51.960;20.158;2022-07-10T13:29:59;2.90;;;0.60;;
55800;SDS011;41730;51.960;20.158;2022-07-10T13:32:28;1.90;;;0.50;;
55800;SDS011;41730;51.960;20.158;2022-07-10T13:34:57;2.50;;;0.60;;
55800;SDS011;41730;51.960;20.158;2022-07-10T13:37:26;2.70;;;0.80;;
55800;SDS011;41730;51.960;20.158;2022-07-10T13:39:55;1.40;;;0.40;;
55800;SDS011;41730;51.960;20.158;2022-07-10T13:42:24;3.00;;;0.60;;
55800;SDS011;41730;51.960;20.158;2022-07-10T13:44:53;2.30;;;0.50;;
55800;SDS011;41730;51.960;20.158;2022-07-10T13:47:22;2.10;;;0.70;;
55800;SDS011;41730;51.960;20.158;2022-07-10T13:49:51;4.50;;;0.80;;
55800;SDS011;41730;51.960;20.158;2022-07-10T13:52:20;2.20;;;0.50;;
55800;SDS011;41730;51.960;20.158;2022-07-10T13:54:49;2.00;;;0.80;;
55800;SDS011;41730;51.960;20.158;2022-07-10T13:57:18;2.40;;;0.60;;
55800;SDS011;41730;51.960;20.158;2022-07-10T13:59:47;2.90;;;0.60;;
55800;SDS011;41730;51.960;20.158;2022-07-10T14:02:16;2.30;;;0.50;;
55800;SDS011;41730;51.960;20.158;2022-07-10T14:04:45;3.10;;;1.00;;
55800;SDS011;41730;51.960;20.158;2022-07-10T14:07:15;4.00;;;1.00;;
55800;SDS011;41730;51.960;20.158;2022-07-10T14:09:43;2.40;;;0.90;;
55800;SDS011;41730;51.960;20.158;2022-07-10T14:12:12;2.30;;;0.60;;
55800;SDS011;41730;51.960;20.158;2022-07-10T14:14:41;2.30;;;0.70;;
55800;SDS011;41730;51.960;20.158;2022-07-10T14:17:11;2.50;;;0.70;;
55800;SDS011;41730;51.960;20.158;2022-07-10T14:19:40;1.40;;;0.60;;
55800;SDS011;41730;51.960;20.158;2022-07-10T14:22:09;2.70;;;0.70;;
55800;SDS011;41730;51.960;20.158;2022-07-10T14:25:00;5.00;;;1.00;;
55800;SDS011;41730;51.960;20.158;2022-07-10T14:27:31;3.70;;;1.00;;
55800;SDS011;41730;51.960;20.158;2022-07-10T14:30:01;3.50;;;0.80;;
55800;SDS011;41730;51.960;20.158;2022-07-10T14:32:30;2.20;;;1.00;;
55800;SDS011;41730;51.960;20.158;2022-07-10T14:35:01;2.60;;;1.10;;
55800;SDS011;41730;51.960;20.158;2022-07-10T14:37:31;3.80;;;1.10;;
55800;SDS011;41730;51.960;20.158;2022-07-10T14:40:00;2.90;;;0.90;;
55800;SDS011;41730;51.960;20.158;2022-07-10T14:42:30;3.50;;;0.90;;
55800;SDS011;41730;51.960;20.158;2022-07-10T14:44:59;2.60;;;0.80;;
55800;SDS011;41730;51.960;20.158;2022-07-10T14:47:28;3.30;;;0.90;;
55800;SDS011;41730;51.960;20.158;2022-07-10T14:50:00;2.40;;;0.80;;
55800;SDS011;41730;51.960;20.158;2022-07-10T14:52:30;1.80;;;0.90;;
55800;SDS011;41730;51.960;20.158;2022-07-10T14:55:03;2.40;;;0.90;;
55800;SDS011;41730;51.960;20.158;2022-07-10T14:57:39;4.00;;;0.90;;
55800;SDS011;41730;51.960;20.158;2022-07-10T15:00:09;2.60;;;0.80;;
55800;SDS011;41730;51.960;20.158;2022-07-10T15:02:40;4.30;;;1.10;;
55800;SDS011;41730;51.960;20.158;2022-07-10T15:05:09;4.00;;;1.30;;
55800;SDS011;41730;51.960;20.158;2022-07-10T15:07:38;3.80;;;0.90;;
55800;SDS011;41730;51.960;20.158;2022-07-10T15:10:08;2.60;;;1.00;;
55800;SDS011;41730;51.960;20.158;2022-07-10T15:12:37;2.50;;;0.90;;
55800;SDS011;41730;51.960;20.158;2022-07-10T15:15:07;4.10;;;0.90;;
55800;SDS011;41730;51.960;20.158;2022-07-10T15:17:37;3.60;;;0.90;;
55800;SDS011;41730;51.960;20.158;2022-07-10T15:20:07;4.70;;;1.00;;
55800;SDS011;41730;51.960;20.158;2022-07-10T15:22:37;4.40;;;0.80;;
55800;SDS011;41730;51.960;20.158;2022-07-10T15:25:07;3.60;;;0.80;;
55800;SDS011;41730;51.960;20.158;2022-07-10T15:27:36;1.60;;;0.60;;
55800;SDS011;41730;51.960;20.158;2022-07-10T15:30:10;2.90;;;0.70;;
55800;SDS011;41730;51.960;20.158;2022-07-10T15:32:41;3.00;;;0.80;;
55800;SDS011;41730;51.960;20.158;2022-07-10T15:35:10;3.30;;;1.00;;
55800;SDS011;41730;51.960;20.158;2022-07-10T15:37:40;3.40;;;0.90;;
55800;SDS011;41730;51.960;20.158;2022-07-10T15:40:09;2.90;;;0.70;;
55800;SDS011;41730;51.960;20.158;2022-07-10T15:42:38;3.70;;;1.00;;
55800;SDS011;41730;51.960;20.158;2022-07-10T15:45:09;3.80;;;1.10;;
55800;SDS011;41730;51.960;20.158;2022-07-10T15:47:41;2.80;;;0.80;;